Time;durP1;ratioP1;P1;durP2;ratioP2;P2;SDS_P1;SDS_P2;PMS_P1;PMS_P2;Temp;Humidity;BMP_temperature;BMP_pressure;BME280_temperature;BME280_humidity;BME280_pressure;Samples;Min_cycle;Max_cycle;Signal;HPM_P1;HPM_P2
2022/09/16 00:05:55;;;;;;;9.73;6.70;;;;;16.10;98299.00;;;;16577897;28;20301;-48
2022/09/16 00:13:58;;;;;;;11.20;7.70;;;;;16.30;98299.00;;;;16578218;28;20725;-48
2022/09/16 00:22:01;;;;;;;8.87;7.50;;;;;16.40;98287.00;;;;16582179;28;20322;-48
2022/09/16 00:30:06;;;;;;;7.70;7.00;;;;;16.20;98300.00;;;;16581923;28;20219;-47
2022/09/16 00:38:09;;;;;;;11.53;6.90;;;;;16.20;98318.00;;;;16581826;28;20234;-48
2022/09/16 00:46:13;;;;;;;7.20;6.60;;;;;16.80;98299.00;;;;16580483;28;20203;-47
2022/09/16 00:54:16;;;;;;;7.60;6.90;;;;;16.00;98306.00;;;;16574736;28;20301;-47
2022/09/16 01:02:21;;;;;;;7.57;6.83;;;;;16.00;98308.00;;;;16579147;28;20304;-47
2022/09/16 01:10:25;;;;;;;8.40;6.37;;;;;16.80;98301.00;;;;16575806;28;20834;-47
2022/09/16 01:18:34;;;;;;;7.63;7.03;;;;;16.60;98300.00;;;;16575845;28;20604;-48
2022/09/16 01:26:56;;;;;;;7.47;6.63;;;;;16.30;98304.00;;;;16577741;28;20875;-48
2022/09/16 01:35:05;;;;;;;10.40;6.77;;;;;16.60;98300.00;;;;16576997;28;20210;-48
2022/09/16 01:43:12;;;;;;;7.83;6.97;;;;;16.10;98307.00;;;;16582705;28;20715;-47
2022/09/16 01:51:21;;;;;;;6.87;6.27;;;;;16.50;98314.00;;;;16590417;28;20246;-47
2022/09/16 01:59:28;;;;;;;7.73;6.87;;;;;16.30;98300.00;;;;16589169;28;20285;-47
2022/09/16 02:07:35;;;;;;;7.00;6.30;;;;;16.30;98300.00;;;;16593110;28;20302;-48
2022/09/16 02:15:39;;;;;;;9.43;7.00;;;;;15.60;98310.00;;;;16589990;28;20279;-47
2022/09/16 02:23:45;;;;;;;8.77;7.97;;;;;15.40;98317.00;;;;16587220;28;20329;-48
2022/09/16 02:31:49;;;;;;;8.33;7.53;;;;;16.70;98288.00;;;;16590498;28;20223;-47
2022/09/16 02:39:56;;;;;;;8.23;7.43;;;;;15.80;98298.00;;;;16591145;28;20314;-47
2022/09/16 02:48:04;;;;;;;8.00;7.30;;;;;15.60;98316.00;;;;16585076;28;20230;-48
2022/09/16 02:56:14;;;;;;;8.10;7.40;;;;;15.40;98303.00;;;;16583045;28;20262;-47
2022/09/16 03:04:18;;;;;;;7.53;6.60;;;;;15.50;98313.00;;;;16584459;28;20226;-48
2022/09/16 03:12:40;;;;;;;9.07;7.43;;;;;15.60;98304.00;;;;16586830;28;20315;-47
2022/09/16 03:20:50;;;;;;;7.93;7.20;;;;;15.60;98304.00;;;;16586241;28;20743;-48
2022/09/16 03:29:03;;;;;;;8.33;7.37;;;;;15.70;98293.00;;;;16580953;28;20404;-48
2022/09/16 03:37:07;;;;;;;10.20;7.27;;;;;15.50;98287.00;;;;16586584;28;20752;-47
2022/09/16 03:45:15;;;;;;;8.10;7.30;;;;;15.40;98281.00;;;;16586457;28;20276;-47
2022/09/16 03:53:18;;;;;;;7.07;6.40;;;;;15.30;98285.00;;;;16582227;28;20220;-48
2022/09/16 04:01:22;;;;;;;7.37;5.60;;;;;15.00;98288.00;;;;16580082;28;20322;-47
2022/09/16 04:09:24;;;;;;;8.73;5.37;;;;;15.40;98278.00;;;;16584543;28;20238;-47
2022/09/16 04:17:31;;;;;;;6.53;5.83;;;;;15.20;98278.00;;;;16583880;28;20319;-47
2022/09/16 04:25:33;;;;;;;12.03;5.67;;;;;15.50;98265.00;;;;16579495;28;20214;-47
2022/09/16 04:33:37;;;;;;;5.67;5.10;;;;;15.60;98262.00;;;;16577785;28;20231;-47
2022/09/16 04:41:40;;;;;;;5.93;4.50;;;;;15.90;98245.00;;;;16567493;28;20233;-48
2022/09/16 04:49:44;;;;;;;5.27;4.60;;;;;15.70;98257.00;;;;16580563;28;20707;-47
2022/09/16 04:57:46;;;;;;;6.73;4.80;;;;;15.90;98254.00;;;;16576834;28;20270;-48
2022/09/16 05:05:50;;;;;;;5.87;5.27;;;;;16.30;98261.00;;;;16567196;28;20282;-47
2022/09/16 05:13:53;;;;;;;5.10;4.60;;;;;15.80;98264.00;;;;16571250;28;20305;-48
2022/09/16 05:21:57;;;;;;;9.30;4.60;;;;;15.50;98285.00;;;;16572363;28;20235;-47
2022/09/16 05:29:59;;;;;;;5.37;4.87;;;;;15.60;98263.00;;;;16555790;28;20301;-48
2022/09/16 05:38:03;;;;;;;5.10;4.70;;;;;15.30;98267.00;;;;16572872;28;20372;-47
2022/09/16 05:46:06;;;;;;;7.93;6.23;;;;;15.10;98280.00;;;;16579003;28;20289;-47
2022/09/16 05:54:10;;;;;;;16.63;5.17;;;;;15.20;98285.00;;;;16574670;28;20771;-48
2022/09/16 06:02:13;;;;;;;7.30;5.60;;;;;15.10;98291.00;;;;16570891;28;20289;-47
2022/09/16 06:10:17;;;;;;;7.63;5.70;;;;;15.60;98289.00;;;;16571716;28;20222;-47
2022/09/16 06:18:20;;;;;;;9.40;6.20;;;;;15.60;98302.00;;;;16556706;28;20258;-47
2022/09/16 06:26:25;;;;;;;9.73;6.93;;;;;15.40;98299.00;;;;16576088;28;20312;-47
2022/09/16 06:34:28;;;;;;;9.83;6.77;;;;;15.80;98291.00;;;;16579941;28;20575;-47
2022/09/16 06:42:32;;;;;;;6.43;5.83;;;;;15.70;98297.00;;;;16570566;28;20234;-47
2022/09/16 06:50:39;;;;;;;9.30;6.47;;;;;15.60;98292.00;;;;16579318;28;20211;-47
2022/09/16 06:58:46;;;;;;;9.63;6.80;;;;;15.60;98299.00;;;;16581621;28;20337;-48
2022/09/16 07:06:50;;;;;;;13.87;8.90;;;;;15.90;98308.00;;;;16571755;28;20718;-47
2022/09/16 07:14:53;;;;;;;6.53;5.80;;;;;16.50;98303.00;;;;16572218;28;20213;-47
2022/09/16 07:22:56;;;;;;;11.20;6.17;;;;;16.00;98317.00;;;;16582617;28;20686;-47
2022/09/16 07:31:03;;;;;;;11.70;6.63;;;;;15.50;98329.00;;;;16587021;28;20259;-48
2022/09/16 07:39:07;;;;;;;10.43;7.00;;;;;15.50;98330.00;;;;16585715;28;20230;-47
2022/09/16 07:47:11;;;;;;;7.23;6.50;;;;;16.40;98329.00;;;;16584104;28;20708;-47
2022/09/16 07:55:15;;;;;;;26.13;8.60;;;;;17.10;98329.00;;;;16582522;28;20319;-47
2022/09/16 08:03:19;;;;;;;10.40;6.60;;;;;16.60;98335.00;;;;16576613;28;20238;-48
2022/09/16 08:11:22;;;;;;;9.50;6.10;;;;;16.40;98331.00;;;;16575444;28;20727;-48
2022/09/16 08:19:26;;;;;;;6.87;5.80;;;;;17.20;98336.00;;;;16574483;28;20786;-48
2022/09/16 08:27:29;;;;;;;15.37;6.90;;;;;17.60;98332.00;;;;16573475;28;20312;-47
2022/09/16 08:35:33;;;;;;;19.13;14.10;;;;;18.00;98339.00;;;;16569332;28;20291;-48
2022/09/16 08:43:39;;;;;;;7.67;6.17;;;;;17.00;98342.00;;;;16568873;28;20257;-47
2022/09/16 08:51:44;;;;;;;8.13;6.00;;;;;16.40;98367.00;;;;16580055;28;20215;-46
2022/09/16 08:59:53;;;;;;;7.73;7.03;;;;;16.60;98370.00;;;;16582665;28;20235;-48
2022/09/16 09:08:35;;;;;;;5.87;5.43;;;;;17.70;98369.00;;;;16581321;28;20753;-47
2022/09/16 09:16:44;;;;;;;5.20;4.70;;;;;17.80;98358.00;;;;16568452;28;20289;-47
2022/09/16 09:25:09;;;;;;;4.90;4.50;;;;;19.20;98350.00;;;;16579242;28;20264;-47
2022/09/16 09:33:20;;;;;;;5.23;4.67;;;;;19.30;98343.00;;;;16574516;28;20330;-47
2022/09/16 09:41:27;;;;;;;5.10;4.60;;;;;18.40;98336.00;;;;16575944;28;20256;-47
2022/09/16 09:49:33;;;;;;;9.37;3.87;;;;;17.80;98344.00;;;;16566882;28;20226;-48
2022/09/16 09:57:39;;;;;;;6.23;4.77;;;;;17.90;98346.00;;;;16569153;28;20572;-47
2022/09/16 10:05:42;;;;;;;5.97;3.70;;;;;16.90;98354.00;;;;16580592;28;20633;-47
2022/09/16 10:13:51;;;;;;;9.23;5.27;;;;;17.00;98346.00;;;;16575708;28;20227;-47
2022/09/16 10:21:55;;;;;;;4.53;4.10;;;;;17.40;98352.00;;;;16583840;28;20234;-47
2022/09/16 10:30:14;;;;;;;9.20;5.10;;;;;17.20;98333.00;;;;16572913;28;20286;-47
2022/09/16 10:38:19;;;;;;;11.77;4.43;;;;;16.80;98338.00;;;;16578742;28;20738;-48
2022/09/16 10:46:23;;;;;;;8.10;4.70;;;;;17.30;98335.00;;;;16579369;28;20258;-47
2022/09/16 10:54:27;;;;;;;8.23;3.90;;;;;16.80;98354.00;;;;16590830;28;20330;-46
2022/09/16 11:02:52;;;;;;;3.60;3.30;;;;;16.40;98354.00;;;;16583368;28;20763;-46
2022/09/16 11:11:01;;;;;;;6.97;4.33;;;;;16.80;98356.00;;;;16578274;28;20210;-46
2022/09/16 11:19:08;;;;;;;5.27;3.80;;;;;17.30;98365.00;;;;16578071;28;20918;-47
2022/09/16 11:27:17;;;;;;;4.67;3.73;;;;;16.70;98371.00;;;;16576426;28;20357;-47
2022/09/16 11:35:53;;;;;;;3.60;3.30;;;;;16.70;98371.00;;;;16572647;28;20195;-47
2022/09/16 11:44:23;;;;;;;5.90;4.10;;;;;16.70;98374.00;;;;16555620;28;20334;-47
2022/09/16 11:52:41;;;;;;;4.00;3.20;;;;;16.70;98369.00;;;;16573122;28;20396;-46
2022/09/16 12:00:44;;;;;;;3.87;3.50;;;;;16.80;98364.00;;;;16574252;28;20357;-47
2022/09/16 12:08:55;;;;;;;3.17;2.87;;;;;17.60;98353.00;;;;16580090;28;20227;-47
2022/09/16 12:17:00;;;;;;;3.20;2.53;;;;;18.50;98332.00;;;;16570686;28;20342;-47
2022/09/16 12:25:09;;;;;;;2.50;1.90;;;;;19.80;98305.00;;;;16572536;28;20334;-47
2022/09/16 12:33:16;;;;;;;6.93;2.17;;;;;18.50;98310.00;;;;16574587;28;20247;-47
2022/09/16 12:41:54;;;;;;;2.60;2.20;;;;;17.80;98320.00;;;;16558287;28;20569;-47
2022/09/16 12:50:28;;;;;;;5.07;2.47;;;;;17.70;98328.00;;;;16572433;28;20238;-47
2022/09/16 12:58:50;;;;;;;3.53;2.50;;;;;17.40;98325.00;;;;16572549;28;20219;-47
2022/09/16 13:06:57;;;;;;;2.00;1.87;;;;;17.80;98321.00;;;;16558076;28;20208;-48
2022/09/16 13:15:02;;;;;;;4.07;2.30;;;;;17.60;98313.00;;;;16565706;28;20192;-47
2022/09/16 13:23:08;;;;;;;3.20;2.03;;;;;18.20;98303.00;;;;16568755;28;20223;-47
2022/09/16 13:31:27;;;;;;;3.13;2.10;;;;;19.20;98290.00;;;;16578426;28;20310;-48
2022/09/16 13:39:31;;;;;;;5.40;2.40;;;;;19.60;98273.00;;;;16591933;28;20255;-48
2022/09/16 13:47:39;;;;;;;3.80;2.10;;;;;20.90;98281.00;;;;16584298;28;20373;-46
2022/09/16 13:55:42;;;;;;;4.67;2.60;;;;;19.90;98275.00;;;;16592547;28;20314;-45
2022/09/16 14:03:55;;;;;;;2.40;2.20;;;;;19.40;98285.00;;;;16593717;28;20961;-45
2022/09/16 14:12:04;;;;;;;3.60;1.90;;;;;19.60;98262.00;;;;16589272;28;20223;-45
2022/09/16 14:20:15;;;;;;;2.43;2.00;;;;;20.00;98265.00;;;;16587724;28;20245;-45
2022/09/16 14:28:19;;;;;;;2.17;1.70;;;;;19.40;98262.00;;;;16590349;28;20249;-46
2022/09/16 14:36:25;;;;;;;3.60;2.07;;;;;18.90;98256.00;;;;16590496;28;20218;-45
2022/09/16 14:44:32;;;;;;;4.03;2.60;;;;;19.10;98259.00;;;;16579679;28;20297;-45
2022/09/16 14:52:36;;;;;;;2.70;2.23;;;;;20.80;98257.00;;;;16583582;28;20310;-46
2022/09/16 15:00:43;;;;;;;3.83;2.10;;;;;19.60;98258.00;;;;16587967;28;20237;-46
2022/09/16 15:08:49;;;;;;;2.80;1.83;;;;;19.00;98252.00;;;;16588337;28;20227;-45
2022/09/16 15:16:54;;;;;;;2.43;1.90;;;;;18.80;98255.00;;;;16583376;28;20844;-46
2022/09/16 15:24:59;;;;;;;4.00;1.90;;;;;18.90;98258.00;;;;16580290;28;20362;-46
2022/09/16 15:33:01;;;;;;;2.30;2.00;;;;;19.20;98242.00;;;;16587420;28;20718;-45
2022/09/16 15:41:11;;;;;;;2.83;2.00;;;;;18.90;98246.00;;;;16582075;28;20302;-46
2022/09/16 15:49:18;;;;;;;2.23;2.10;;;;;18.80;98251.00;;;;16583817;28;20220;-46
2022/09/16 15:57:27;;;;;;;4.63;2.40;;;;;20.30;98251.00;;;;16583909;28;20256;-46
2022/09/16 16:05:31;;;;;;;3.23;2.33;;;;;21.50;98238.00;;;;16570464;28;20302;-47
2022/09/16 16:13:35;;;;;;;5.23;2.97;;;;;22.20;98219.00;;;;16572386;28;20247;-47
2022/09/16 16:21:45;;;;;;;2.97;1.87;;;;;20.70;98246.00;;;;16564019;28;20302;-46
2022/09/16 16:29:49;;;;;;;3.50;1.57;;;;;20.20;98248.00;;;;16563671;28;20612;-47
2022/09/16 16:37:51;;;;;;;3.13;1.83;;;;;19.90;98255.00;;;;16561539;28;20295;-47
2022/09/16 16:45:56;;;;;;;4.50;2.03;;;;;20.00;98255.00;;;;16570146;28;20733;-48
2022/09/16 16:53:58;;;;;;;2.83;1.60;;;;;19.70;98259.00;;;;16564126;28;20219;-46
2022/09/16 17:02:03;;;;;;;3.00;2.10;;;;;18.50;98266.00;;;;16562910;28;20434;-47
2022/09/16 17:10:06;;;;;;;5.03;3.47;;;;;18.30;98279.00;;;;16561982;28;20229;-46
2022/09/16 17:18:09;;;;;;;3.90;2.97;;;;;18.40;98289.00;;;;16551799;28;20327;-46
2022/09/16 17:26:13;;;;;;;8.70;3.17;;;;;17.80;98321.00;;;;16551992;28;20616;-46
2022/09/16 17:34:17;;;;;;;1.63;1.40;;;;;17.20;98345.00;;;;16544180;28;20220;-46
2022/09/16 17:42:20;;;;;;;2.40;1.70;;;;;16.80;98356.00;;;;16558188;28;20231;-46
2022/09/16 17:50:24;;;;;;;3.20;2.50;;;;;16.10;98367.00;;;;16573076;28;20222;-46
2022/09/16 17:58:26;;;;;;;3.20;1.97;;;;;15.40;98389.00;;;;16563706;28;20324;-45
2022/09/16 18:06:34;;;;;;;6.00;2.83;;;;;15.20;98417.00;;;;16563629;28;20208;-45
2022/09/16 18:14:36;;;;;;;2.93;2.00;;;;;15.10;98422.00;;;;16570533;28;20229;-46
2022/09/16 18:22:40;;;;;;;3.20;2.90;;;;;14.90;98413.00;;;;16572493;28;20237;-46
2022/09/16 18:30:43;;;;;;;3.63;1.90;;;;;15.00;98397.00;;;;16575651;28;20250;-46
2022/09/16 18:38:50;;;;;;;3.20;2.23;;;;;14.80;98420.00;;;;16573843;28;20862;-46
2022/09/16 18:46:54;;;;;;;3.07;2.80;;;;;14.40;98438.00;;;;16579316;28;20199;-46
2022/09/16 18:54:57;;;;;;;4.00;2.83;;;;;14.50;98433.00;;;;16573905;28;20608;-46
2022/09/16 19:03:00;;;;;;;3.30;2.97;;;;;14.10;98441.00;;;;16562938;28;20233;-46
2022/09/16 19:11:05;;;;;;;2.93;2.73;;;;;14.10;98432.00;;;;16561269;28;20302;-46
2022/09/16 19:19:08;;;;;;;5.20;3.30;;;;;13.90;98442.00;;;;16564359;28;20230;-46
2022/09/16 19:27:12;;;;;;;4.73;4.23;;;;;13.60;98448.00;;;;16574789;28;20234;-46
2022/09/16 19:35:18;;;;;;;4.30;4.00;;;;;13.50;98449.00;;;;16567318;28;20208;-47
2022/09/16 19:43:22;;;;;;;5.00;4.60;;;;;13.40;98445.00;;;;16577362;28;20631;-46
2022/09/16 19:51:25;;;;;;;4.67;4.20;;;;;13.20;98456.00;;;;16576694;28;20255;-46
2022/09/16 19:59:29;;;;;;;5.73;3.20;;;;;13.30;98449.00;;;;16575282;28;20319;-46
2022/09/16 20:07:31;;;;;;;6.23;4.00;;;;;13.20;98469.00;;;;16573030;28;20849;-46
2022/09/16 20:15:35;;;;;;;8.13;3.30;;;;;13.20;98463.00;;;;16572768;28;20286;-47
2022/09/16 20:23:38;;;;;;;5.00;3.37;;;;;13.10;98464.00;;;;16574231;28;20231;-46
2022/09/16 20:31:42;;;;;;;3.30;3.10;;;;;13.20;98466.00;;;;16571560;28;20209;-46
2022/09/16 20:39:45;;;;;;;4.63;2.93;;;;;13.00;98460.00;;;;16580569;28;20218;-46
2022/09/16 20:47:52;;;;;;;4.07;3.33;;;;;12.80;98473.00;;;;16581215;28;20279;-46
2022/09/16 20:56:01;;;;;;;3.53;2.50;;;;;13.00;98466.00;;;;16581005;28;20212;-46
2022/09/16 21:04:06;;;;;;;3.80;2.47;;;;;13.10;98490.00;;;;16575440;28;20249;-46
2022/09/16 21:12:09;;;;;;;5.87;2.90;;;;;13.20;98493.00;;;;16578052;28;20685;-46
2022/09/16 21:20:13;;;;;;;2.53;2.30;;;;;13.10;98496.00;;;;16577205;28;20245;-46
2022/09/16 21:28:15;;;;;;;2.07;1.97;;;;;13.10;98508.00;;;;16579522;28;20617;-46
2022/09/16 21:36:21;;;;;;;3.40;2.50;;;;;13.00;98504.00;;;;16579648;28;20300;-45
2022/09/16 21:44:23;;;;;;;3.90;2.17;;;;;13.00;98509.00;;;;16571910;28;20273;-46
2022/09/16 21:52:27;;;;;;;5.30;3.07;;;;;13.00;98518.00;;;;16565719;28;20217;-46
2022/09/16 22:00:31;;;;;;;2.60;2.07;;;;;13.10;98500.00;;;;16578035;28;20229;-46
2022/09/16 22:08:35;;;;;;;1.90;1.80;;;;;12.90;98512.00;;;;16589450;28;20239;-46
2022/09/16 22:16:38;;;;;;;2.50;1.73;;;;;12.80;98516.00;;;;16584746;28;20276;-46
2022/09/16 22:24:42;;;;;;;1.73;1.53;;;;;12.90;98514.00;;;;16589134;28;20277;-46
2022/09/16 22:32:45;;;;;;;1.63;1.50;;;;;12.80;98522.00;;;;16584226;28;20635;-46
2022/09/16 22:40:49;;;;;;;4.23;1.30;;;;;12.90;98524.00;;;;16584223;28;20309;-46
2022/09/16 22:48:52;;;;;;;2.33;1.40;;;;;12.90;98516.00;;;;16587574;28;20241;-46
2022/09/16 22:56:56;;;;;;;1.83;1.73;;;;;12.60;98512.00;;;;16587183;28;20299;-46
2022/09/16 23:04:59;;;;;;;1.30;1.20;;;;;12.80;98513.00;;;;16588108;28;20223;-46
2022/09/16 23:13:03;;;;;;;1.00;1.00;;;;;12.60;98529.00;;;;16587115;28;20714;-46
2022/09/16 23:21:07;;;;;;;1.60;1.50;;;;;12.80;98521.00;;;;16583590;28;20319;-46
2022/09/16 23:29:12;;;;;;;3.30;1.60;;;;;12.90;98513.00;;;;16587798;28;20858;-46
2022/09/16 23:37:15;;;;;;;1.20;1.20;;;;;12.70;98516.00;;;;16586820;28;20284;-46
2022/09/16 23:45:19;;;;;;;2.63;1.60;;;;;12.50;98527.00;;;;16582812;28;20246;-46
2022/09/16 23:53:21;;;;;;;3.80;1.20;;;;;12.60;98524.00;;;;16577569;28;20307;-46
